sensor_id;sensor_type;location;lat;lon;timestamp;temperature;humidity
32097;DHT22;18610;49.916;8.284;2023-12-29T00:02:20;8.90;99.90
32097;DHT22;18610;49.916;8.284;2023-12-29T00:04:48;8.90;99.90
32097;DHT22;18610;49.916;8.284;2023-12-29T00:07:16;8.90;99.90
32097;DHT22;18610;49.916;8.284;2023-12-29T00:09:42;8.90;99.90
32097;DHT22;18610;49.916;8.284;2023-12-29T00:12:09;8.90;99.90
32097;DHT22;18610;49.916;8.284;2023-12-29T00:14:37;8.80;99.90
32097;DHT22;18610;49.916;8.284;2023-12-29T00:17:03;8.80;99.90
32097;DHT22;18610;49.916;8.284;2023-12-29T00:19:30;8.80;99.90
32097;DHT22;18610;49.916;8.284;2023-12-29T00:21:58;8.80;99.90
32097;DHT22;18610;49.916;8.284;2023-12-29T00:24:28;8.80;99.90
32097;DHT22;18610;49.916;8.284;2023-12-29T00:26:56;8.90;99.90
32097;DHT22;18610;49.916;8.284;2023-12-29T00:29:23;8.80;99.90
32097;DHT22;18610;49.916;8.284;2023-12-29T00:31:50;8.80;99.90
32097;DHT22;18610;49.916;8.284;2023-12-29T00:34:16;8.70;99.90
32097;DHT22;18610;49.916;8.284;2023-12-29T00:36:43;8.60;99.90
32097;DHT22;18610;49.916;8.284;2023-12-29T00:39:11;8.60;99.90
32097;DHT22;18610;49.916;8.284;2023-12-29T00:41:39;8.70;99.90
32097;DHT22;18610;49.916;8.284;2023-12-29T00:44:06;8.70;99.90
32097;DHT22;18610;49.916;8.284;2023-12-29T00:46:33;8.70;99.90
32097;DHT22;18610;49.916;8.284;2023-12-29T00:49:00;8.70;99.90
32097;DHT22;18610;49.916;8.284;2023-12-29T00:51:26;8.70;99.90
32097;DHT22;18610;49.916;8.284;2023-12-29T00:53:53;8.70;99.90
32097;DHT22;18610;49.916;8.284;2023-12-29T00:56:21;8.60;99.90
32097;DHT22;18610;49.916;8.284;2023-12-29T00:58:47;8.60;99.90
32097;DHT22;18610;49.916;8.284;2023-12-29T01:01:14;8.60;99.90
32097;DHT22;18610;49.916;8.284;2023-12-29T01:03:41;8.60;99.90
32097;DHT22;18610;49.916;8.284;2023-12-29T01:06:08;8.60;99.90
32097;DHT22;18610;49.916;8.284;2023-12-29T01:08:34;8.60;99.90
32097;DHT22;18610;49.916;8.284;2023-12-29T01:11:01;8.60;99.90
32097;DHT22;18610;49.916;8.284;2023-12-29T01:13:29;8.70;99.90
32097;DHT22;18610;49.916;8.284;2023-12-29T01:15:55;8.70;99.90
32097;DHT22;18610;49.916;8.284;2023-12-29T01:18:22;8.70;99.90
32097;DHT22;18610;49.916;8.284;2023-12-29T01:20:49;8.80;99.90
32097;DHT22;18610;49.916;8.284;2023-12-29T01:23:15;8.80;99.90
32097;DHT22;18610;49.916;8.284;2023-12-29T01:25:43;8.80;99.90
32097;DHT22;18610;49.916;8.284;2023-12-29T01:28:10;8.80;99.90
32097;DHT22;18610;49.916;8.284;2023-12-29T01:30:38;8.90;99.90
32097;DHT22;18610;49.916;8.284;2023-12-29T01:33:05;9.00;99.90
32097;DHT22;18610;49.916;8.284;2023-12-29T01:35:31;9.00;99.90
32097;DHT22;18610;49.916;8.284;2023-12-29T01:37:58;9.00;99.90
32097;DHT22;18610;49.916;8.284;2023-12-29T01:40:26;9.00;99.90
32097;DHT22;18610;49.916;8.284;2023-12-29T01:42:53;9.10;99.90
32097;DHT22;18610;49.916;8.284;2023-12-29T01:45:21;9.10;99.90
32097;DHT22;18610;49.916;8.284;2023-12-29T01:47:50;9.10;99.90
32097;DHT22;18610;49.916;8.284;2023-12-29T01:50:18;9.10;99.90
32097;DHT22;18610;49.916;8.284;2023-12-29T01:52:46;9.10;99.90
32097;DHT22;18610;49.916;8.284;2023-12-29T01:55:17;9.10;99.90
32097;DHT22;18610;49.916;8.284;2023-12-29T01:57:45;9.20;99.90
32097;DHT22;18610;49.916;8.284;2023-12-29T02:00:13;9.20;99.90
32097;DHT22;18610;49.916;8.284;2023-12-29T02:02:41;9.20;99.90
32097;DHT22;18610;49.916;8.284;2023-12-29T02:05:13;9.20;99.90
32097;DHT22;18610;49.916;8.284;2023-12-29T02:07:40;9.20;99.90
32097;DHT22;18610;49.916;8.284;2023-12-29T02:10:08;9.20;99.90
32097;DHT22;18610;49.916;8.284;2023-12-29T02:12:35;9.10;99.90
32097;DHT22;18610;49.916;8.284;2023-12-29T02:15:03;9.10;99.90
32097;DHT22;18610;49.916;8.284;2023-12-29T02:17:35;9.00;99.90
32097;DHT22;18610;49.916;8.284;2023-12-29T02:20:13;9.10;99.90
32097;DHT22;18610;49.916;8.284;2023-12-29T02:22:39;9.00;99.90
32097;DHT22;18610;49.916;8.284;2023-12-29T02:25:08;9.10;99.90
32097;DHT22;18610;49.916;8.284;2023-12-29T02:27:41;9.10;99.90
32097;DHT22;18610;49.916;8.284;2023-12-29T02:30:11;9.10;99.90
32097;DHT22;18610;49.916;8.284;2023-12-29T02:32:40;9.10;99.90
32097;DHT22;18610;49.916;8.284;2023-12-29T02:35:10;9.10;99.90
32097;DHT22;18610;49.916;8.284;2023-12-29T02:37:39;9.10;99.90
32097;DHT22;18610;49.916;8.284;2023-12-29T02:40:08;9.00;99.90
32097;DHT22;18610;49.916;8.284;2023-12-29T02:42:36;9.00;99.90
32097;DHT22;18610;49.916;8.284;2023-12-29T02:45:03;8.90;99.90
32097;DHT22;18610;49.916;8.284;2023-12-29T02:47:30;8.90;99.90
32097;DHT22;18610;49.916;8.284;2023-12-29T02:49:56;8.90;99.90
32097;DHT22;18610;49.916;8.284;2023-12-29T02:52:23;8.80;99.90
32097;DHT22;18610;49.916;8.284;2023-12-29T02:54:50;8.90;99.90
32097;DHT22;18610;49.916;8.284;2023-12-29T02:57:18;8.80;99.90
32097;DHT22;18610;49.916;8.284;2023-12-29T02:59:44;8.80;99.90
32097;DHT22;18610;49.916;8.284;2023-12-29T03:02:11;8.90;99.90
32097;DHT22;18610;49.916;8.284;2023-12-29T03:04:37;8.90;99.90
32097;DHT22;18610;49.916;8.284;2023-12-29T03:07:04;9.00;99.90
32097;DHT22;18610;49.916;8.284;2023-12-29T03:09:31;9.00;99.90
32097;DHT22;18610;49.916;8.284;2023-12-29T03:11:58;9.10;99.90
32097;DHT22;18610;49.916;8.284;2023-12-29T03:14:26;9.10;99.90
32097;DHT22;18610;49.916;8.284;2023-12-29T03:16:52;9.10;99.90
32097;DHT22;18610;49.916;8.284;2023-12-29T03:19:19;9.10;99.90
32097;DHT22;18610;49.916;8.284;2023-12-29T03:21:46;9.20;99.90
32097;DHT22;18610;49.916;8.284;2023-12-29T03:24:13;9.20;99.90
32097;DHT22;18610;49.916;8.284;2023-12-29T03:26:39;9.30;99.90
32097;DHT22;18610;49.916;8.284;2023-12-29T03:29:06;9.30;99.90
32097;DHT22;18610;49.916;8.284;2023-12-29T03:31:34;9.30;99.90
32097;DHT22;18610;49.916;8.284;2023-12-29T03:34:01;9.20;99.90
32097;DHT22;18610;49.916;8.284;2023-12-29T03:36:27;9.20;99.90
32097;DHT22;18610;49.916;8.284;2023-12-29T03:38:54;9.20;99.90
32097;DHT22;18610;49.916;8.284;2023-12-29T03:41:21;9.20;99.90
32097;DHT22;18610;49.916;8.284;2023-12-29T03:43:47;9.20;99.90
32097;DHT22;18610;49.916;8.284;2023-12-29T03:46:17;9.10;99.90
32097;DHT22;18610;49.916;8.284;2023-12-29T03:48:46;9.10;99.90
32097;DHT22;18610;49.916;8.284;2023-12-29T03:51:13;9.10;99.90
32097;DHT22;18610;49.916;8.284;2023-12-29T03:53:39;9.00;99.90
32097;DHT22;18610;49.916;8.284;2023-12-29T03:56:07;9.00;99.90
32097;DHT22;18610;49.916;8.284;2023-12-29T03:58:33;8.90;99.90
32097;DHT22;18610;49.916;8.284;2023-12-29T04:01:00;8.90;99.90
32097;DHT22;18610;49.916;8.284;2023-12-29T04:03:27;9.00;99.90
32097;DHT22;18610;49.916;8.284;2023-12-29T04:05:55;9.00;99.90
32097;DHT22;18610;49.916;8.284;2023-12-29T04:08:22;8.90;99.90
32097;DHT22;18610;49.916;8.284;2023-12-29T04:10:49;8.90;99.90
32097;DHT22;18610;49.916;8.284;2023-12-29T04:13:15;8.90;99.90
32097;DHT22;18610;49.916;8.284;2023-12-29T04:15:42;8.90;99.90
32097;DHT22;18610;49.916;8.284;2023-12-29T04:18:08;8.90;99.90
32097;DHT22;18610;49.916;8.284;2023-12-29T04:20:35;8.90;99.90
32097;DHT22;18610;49.916;8.284;2023-12-29T04:23:05;8.90;99.90
32097;DHT22;18610;49.916;8.284;2023-12-29T04:25:32;8.90;99.90
32097;DHT22;18610;49.916;8.284;2023-12-29T04:27:59;8.80;99.90
32097;DHT22;18610;49.916;8.284;2023-12-29T04:30:26;8.80;99.90
32097;DHT22;18610;49.916;8.284;2023-12-29T04:32:52;8.80;99.90
32097;DHT22;18610;49.916;8.284;2023-12-29T04:35:19;8.80;99.90
32097;DHT22;18610;49.916;8.284;2023-12-29T04:37:46;8.80;99.90
32097;DHT22;18610;49.916;8.284;2023-12-29T04:40:14;8.70;99.90
32097;DHT22;18610;49.916;8.284;2023-12-29T04:42:40;8.80;99.90
32097;DHT22;18610;49.916;8.284;2023-12-29T04:45:07;8.70;99.90
32097;DHT22;18610;49.916;8.284;2023-12-29T04:47:35;8.70;99.90
32097;DHT22;18610;49.916;8.284;2023-12-29T04:50:02;8.80;99.90
32097;DHT22;18610;49.916;8.284;2023-12-29T04:52:29;8.80;99.90
32097;DHT22;18610;49.916;8.284;2023-12-29T04:54:55;8.80;99.90
32097;DHT22;18610;49.916;8.284;2023-12-29T04:57:24;8.70;99.90
32097;DHT22;18610;49.916;8.284;2023-12-29T04:59:50;8.70;99.90
32097;DHT22;18610;49.916;8.284;2023-12-29T05:02:17;8.70;99.90
32097;DHT22;18610;49.916;8.284;2023-12-29T05:04:45;8.70;99.90
32097;DHT22;18610;49.916;8.284;2023-12-29T05:07:12;8.80;99.90
32097;DHT22;18610;49.916;8.284;2023-12-29T05:09:38;8.80;99.90
32097;DHT22;18610;49.916;8.284;2023-12-29T05:12:05;8.80;99.90
32097;DHT22;18610;49.916;8.284;2023-12-29T05:14:33;8.90;99.90
32097;DHT22;18610;49.916;8.284;2023-12-29T05:17:00;8.90;99.90
32097;DHT22;18610;49.916;8.284;2023-12-29T05:19:27;8.90;99.90
32097;DHT22;18610;49.916;8.284;2023-12-29T05:21:53;8.90;99.90
32097;DHT22;18610;49.916;8.284;2023-12-29T05:24:20;8.90;99.90
32097;DHT22;18610;49.916;8.284;2023-12-29T05:26:46;8.90;99.90
32097;DHT22;18610;49.916;8.284;2023-12-29T05:29:13;8.90;99.90
32097;DHT22;18610;49.916;8.284;2023-12-29T05:31:41;8.90;99.90
32097;DHT22;18610;49.916;8.284;2023-12-29T05:34:08;8.90;99.90
32097;DHT22;18610;49.916;8.284;2023-12-29T05:36:35;9.00;99.90
32097;DHT22;18610;49.916;8.284;2023-12-29T05:39:02;9.00;99.90
32097;DHT22;18610;49.916;8.284;2023-12-29T05:41:29;9.00;99.90
32097;DHT22;18610;49.916;8.284;2023-12-29T05:43:56;9.00;99.90
32097;DHT22;18610;49.916;8.284;2023-12-29T05:46:23;9.00;99.90
32097;DHT22;18610;49.916;8.284;2023-12-29T05:48:51;9.00;99.90
32097;DHT22;18610;49.916;8.284;2023-12-29T05:51:18;8.90;99.90
32097;DHT22;18610;49.916;8.284;2023-12-29T05:53:45;8.90;99.90
32097;DHT22;18610;49.916;8.284;2023-12-29T05:56:13;8.90;99.90
32097;DHT22;18610;49.916;8.284;2023-12-29T05:58:43;9.00;99.90
32097;DHT22;18610;49.916;8.284;2023-12-29T06:01:10;9.00;99.90
32097;DHT22;18610;49.916;8.284;2023-12-29T06:03:37;9.10;99.90
32097;DHT22;18610;49.916;8.284;2023-12-29T06:06:05;9.10;99.90
32097;DHT22;18610;49.916;8.284;2023-12-29T06:08:32;9.10;99.90
32097;DHT22;18610;49.916;8.284;2023-12-29T06:10:59;9.10;99.90
32097;DHT22;18610;49.916;8.284;2023-12-29T06:13:28;9.20;99.90
32097;DHT22;18610;49.916;8.284;2023-12-29T06:15:54;9.30;99.90
32097;DHT22;18610;49.916;8.284;2023-12-29T06:18:21;9.30;99.90
32097;DHT22;18610;49.916;8.284;2023-12-29T06:20:48;9.30;99.90
32097;DHT22;18610;49.916;8.284;2023-12-29T06:23:16;9.30;99.90
32097;DHT22;18610;49.916;8.284;2023-12-29T06:25:43;9.40;99.90
32097;DHT22;18610;49.916;8.284;2023-12-29T06:28:10;9.40;99.90
32097;DHT22;18610;49.916;8.284;2023-12-29T06:30:36;9.40;99.90
32097;DHT22;18610;49.916;8.284;2023-12-29T06:33:04;9.40;99.90
32097;DHT22;18610;49.916;8.284;2023-12-29T06:35:30;9.40;99.90
32097;DHT22;18610;49.916;8.284;2023-12-29T06:37:57;9.50;99.90
32097;DHT22;18610;49.916;8.284;2023-12-29T06:40:25;9.50;99.90
32097;DHT22;18610;49.916;8.284;2023-12-29T06:42:52;9.50;99.90
32097;DHT22;18610;49.916;8.284;2023-12-29T06:45:19;9.60;99.90
32097;DHT22;18610;49.916;8.284;2023-12-29T06:47:46;9.60;99.90
32097;DHT22;18610;49.916;8.284;2023-12-29T06:50:12;9.60;99.90
32097;DHT22;18610;49.916;8.284;2023-12-29T06:52:39;9.70;99.90
32097;DHT22;18610;49.916;8.284;2023-12-29T06:55:07;9.70;99.90
32097;DHT22;18610;49.916;8.284;2023-12-29T06:57:35;9.70;99.90
32097;DHT22;18610;49.916;8.284;2023-12-29T07:00:02;9.70;99.90
32097;DHT22;18610;49.916;8.284;2023-12-29T07:02:29;9.80;99.90
32097;DHT22;18610;49.916;8.284;2023-12-29T07:04:56;9.80;99.90
32097;DHT22;18610;49.916;8.284;2023-12-29T07:07:23;9.80;99.90
32097;DHT22;18610;49.916;8.284;2023-12-29T07:09:50;9.80;99.90
32097;DHT22;18610;49.916;8.284;2023-12-29T07:12:17;9.80;99.90
32097;DHT22;18610;49.916;8.284;2023-12-29T07:14:45;9.80;99.90
32097;DHT22;18610;49.916;8.284;2023-12-29T07:17:11;9.90;99.90
32097;DHT22;18610;49.916;8.284;2023-12-29T07:19:38;9.90;99.90
32097;DHT22;18610;49.916;8.284;2023-12-29T07:22:05;10.00;99.90
32097;DHT22;18610;49.916;8.284;2023-12-29T07:24:33;10.00;99.90
32097;DHT22;18610;49.916;8.284;2023-12-29T07:27:00;10.00;99.90
32097;DHT22;18610;49.916;8.284;2023-12-29T07:29:27;10.00;99.90
32097;DHT22;18610;49.916;8.284;2023-12-29T07:31:55;10.00;99.90
32097;DHT22;18610;49.916;8.284;2023-12-29T07:34:22;10.00;99.90
32097;DHT22;18610;49.916;8.284;2023-12-29T07:36:49;10.10;99.90
32097;DHT22;18610;49.916;8.284;2023-12-29T07:39:15;10.00;99.90
32097;DHT22;18610;49.916;8.284;2023-12-29T07:41:43;10.10;99.90
32097;DHT22;18610;49.916;8.284;2023-12-29T07:44:10;10.10;99.90
32097;DHT22;18610;49.916;8.284;2023-12-29T07:46:37;10.10;99.90
32097;DHT22;18610;49.916;8.284;2023-12-29T07:49:06;10.10;99.90
32097;DHT22;18610;49.916;8.284;2023-12-29T07:51:33;10.10;99.90
32097;DHT22;18610;49.916;8.284;2023-12-29T07:54:00;10.10;99.90
32097;DHT22;18610;49.916;8.284;2023-12-29T07:56:27;10.10;99.90
32097;DHT22;18610;49.916;8.284;2023-12-29T07:58:53;10.10;99.90
32097;DHT22;18610;49.916;8.284;2023-12-29T08:01:20;10.10;99.90
32097;DHT22;18610;49.916;8.284;2023-12-29T08:03:47;10.20;99.90
32097;DHT22;18610;49.916;8.284;2023-12-29T08:06:15;10.20;99.90
32097;DHT22;18610;49.916;8.284;2023-12-29T08:08:41;10.20;99.90
32097;DHT22;18610;49.916;8.284;2023-12-29T08:11:13;10.20;99.90
32097;DHT22;18610;49.916;8.284;2023-12-29T08:13:40;10.20;99.90
32097;DHT22;18610;49.916;8.284;2023-12-29T08:16:07;10.20;99.90
32097;DHT22;18610;49.916;8.284;2023-12-29T08:18:34;10.20;99.90
32097;DHT22;18610;49.916;8.284;2023-12-29T08:21:01;10.20;99.90
32097;DHT22;18610;49.916;8.284;2023-12-29T08:23:29;10.20;99.90
32097;DHT22;18610;49.916;8.284;2023-12-29T08:25:56;10.20;99.90
32097;DHT22;18610;49.916;8.284;2023-12-29T08:28:23;10.20;99.90
32097;DHT22;18610;49.916;8.284;2023-12-29T08:30:50;10.20;99.90
32097;DHT22;18610;49.916;8.284;2023-12-29T08:33:17;10.20;99.90
32097;DHT22;18610;49.916;8.284;2023-12-29T08:35:44;10.30;99.90
32097;DHT22;18610;49.916;8.284;2023-12-29T08:38:11;10.30;99.90
32097;DHT22;18610;49.916;8.284;2023-12-29T08:40:40;10.30;99.90
32097;DHT22;18610;49.916;8.284;2023-12-29T08:43:06;10.30;99.90
32097;DHT22;18610;49.916;8.284;2023-12-29T08:45:33;10.30;99.90
32097;DHT22;18610;49.916;8.284;2023-12-29T08:48:00;10.40;99.90
32097;DHT22;18610;49.916;8.284;2023-12-29T08:50:28;10.40;99.90
32097;DHT22;18610;49.916;8.284;2023-12-29T08:52:55;10.40;99.90
32097;DHT22;18610;49.916;8.284;2023-12-29T08:55:21;10.40;99.90
32097;DHT22;18610;49.916;8.284;2023-12-29T08:57:49;10.40;99.90
32097;DHT22;18610;49.916;8.284;2023-12-29T09:00:16;10.40;99.90
32097;DHT22;18610;49.916;8.284;2023-12-29T09:02:43;10.40;99.90
32097;DHT22;18610;49.916;8.284;2023-12-29T09:05:10;10.40;99.90
32097;DHT22;18610;49.916;8.284;2023-12-29T09:07:36;10.40;99.90
32097;DHT22;18610;49.916;8.284;2023-12-29T09:10:04;10.40;99.90
32097;DHT22;18610;49.916;8.284;2023-12-29T09:12:33;10.30;99.90
32097;DHT22;18610;49.916;8.284;2023-12-29T09:15:01;10.40;99.90
32097;DHT22;18610;49.916;8.284;2023-12-29T09:17:28;10.40;99.90
32097;DHT22;18610;49.916;8.284;2023-12-29T09:19:54;10.50;99.90
32097;DHT22;18610;49.916;8.284;2023-12-29T09:22:21;10.50;99.90
32097;DHT22;18610;49.916;8.284;2023-12-29T09:24:48;10.60;99.90
32097;DHT22;18610;49.916;8.284;2023-12-29T09:27:15;10.60;99.90
32097;DHT22;18610;49.916;8.284;2023-12-29T09:29:42;10.60;99.90
32097;DHT22;18610;49.916;8.284;2023-12-29T09:32:10;10.60;99.90
32097;DHT22;18610;49.916;8.284;2023-12-29T09:34:37;10.60;99.90
32097;DHT22;18610;49.916;8.284;2023-12-29T09:37:04;10.60;99.90
32097;DHT22;18610;49.916;8.284;2023-12-29T09:39:30;10.60;99.90
32097;DHT22;18610;49.916;8.284;2023-12-29T09:41:58;10.60;99.90
32097;DHT22;18610;49.916;8.284;2023-12-29T09:44:27;10.60;99.90
32097;DHT22;18610;49.916;8.284;2023-12-29T09:46:55;10.60;99.90
32097;DHT22;18610;49.916;8.284;2023-12-29T09:49:25;10.70;99.90
32097;DHT22;18610;49.916;8.284;2023-12-29T09:51:53;10.70;99.90
32097;DHT22;18610;49.916;8.284;2023-12-29T09:54:20;10.80;99.90
32097;DHT22;18610;49.916;8.284;2023-12-29T09:56:49;10.80;99.90
32097;DHT22;18610;49.916;8.284;2023-12-29T09:59:16;10.80;99.90
32097;DHT22;18610;49.916;8.284;2023-12-29T10:01:45;10.80;99.90
32097;DHT22;18610;49.916;8.284;2023-12-29T10:04:12;10.90;99.90
32097;DHT22;18610;49.916;8.284;2023-12-29T10:06:44;10.90;99.90
32097;DHT22;18610;49.916;8.284;2023-12-29T10:09:12;10.90;99.90
32097;DHT22;18610;49.916;8.284;2023-12-29T10:11:40;10.90;99.90
32097;DHT22;18610;49.916;8.284;2023-12-29T10:14:14;10.90;99.90
32097;DHT22;18610;49.916;8.284;2023-12-29T10:16:50;10.90;99.90
32097;DHT22;18610;49.916;8.284;2023-12-29T10:19:27;10.90;99.90
32097;DHT22;18610;49.916;8.284;2023-12-29T10:22:03;10.90;99.90
32097;DHT22;18610;49.916;8.284;2023-12-29T10:24:33;10.90;99.90
32097;DHT22;18610;49.916;8.284;2023-12-29T10:27:00;10.90;99.90
32097;DHT22;18610;49.916;8.284;2023-12-29T10:29:28;10.90;99.90
32097;DHT22;18610;49.916;8.284;2023-12-29T10:31:54;10.90;99.90
32097;DHT22;18610;49.916;8.284;2023-12-29T10:34:23;10.90;99.90
32097;DHT22;18610;49.916;8.284;2023-12-29T10:36:54;10.90;99.90
32097;DHT22;18610;49.916;8.284;2023-12-29T10:39:23;10.90;99.90
32097;DHT22;18610;49.916;8.284;2023-12-29T10:41:50;10.90;99.90
32097;DHT22;18610;49.916;8.284;2023-12-29T10:44:28;10.90;99.90
32097;DHT22;18610;49.916;8.284;2023-12-29T10:46:55;11.00;99.90
32097;DHT22;18610;49.916;8.284;2023-12-29T10:49:22;10.90;99.90
32097;DHT22;18610;49.916;8.284;2023-12-29T10:51:48;10.90;99.90
32097;DHT22;18610;49.916;8.284;2023-12-29T10:54:19;10.90;99.90
32097;DHT22;18610;49.916;8.284;2023-12-29T10:56:49;11.00;99.90
32097;DHT22;18610;49.916;8.284;2023-12-29T10:59:26;11.00;99.90
32097;DHT22;18610;49.916;8.284;2023-12-29T11:01:53;11.00;99.90
32097;DHT22;18610;49.916;8.284;2023-12-29T11:04:22;11.00;99.90
32097;DHT22;18610;49.916;8.284;2023-12-29T11:06:49;11.00;99.90
32097;DHT22;18610;49.916;8.284;2023-12-29T11:09:27;11.00;99.90
32097;DHT22;18610;49.916;8.284;2023-12-29T11:11:55;11.00;99.90
32097;DHT22;18610;49.916;8.284;2023-12-29T11:14:23;11.00;99.90
32097;DHT22;18610;49.916;8.284;2023-12-29T11:16:51;11.00;99.90
32097;DHT22;18610;49.916;8.284;2023-12-29T11:19:19;11.00;99.90
32097;DHT22;18610;49.916;8.284;2023-12-29T11:21:47;11.00;99.90
32097;DHT22;18610;49.916;8.284;2023-12-29T11:24:15;11.00;99.90
32097;DHT22;18610;49.916;8.284;2023-12-29T11:26:42;11.00;99.90
32097;DHT22;18610;49.916;8.284;2023-12-29T11:29:11;11.10;99.90
32097;DHT22;18610;49.916;8.284;2023-12-29T11:31:38;11.00;99.90
32097;DHT22;18610;49.916;8.284;2023-12-29T11:34:09;11.00;99.90
32097;DHT22;18610;49.916;8.284;2023-12-29T11:36:42;11.10;99.90
32097;DHT22;18610;49.916;8.284;2023-12-29T11:39:15;11.10;99.90
32097;DHT22;18610;49.916;8.284;2023-12-29T11:41:47;11.10;99.90
32097;DHT22;18610;49.916;8.284;2023-12-29T11:44:26;11.10;99.90
32097;DHT22;18610;49.916;8.284;2023-12-29T11:46:53;11.10;99.90
32097;DHT22;18610;49.916;8.284;2023-12-29T11:49:20;11.10;99.90
32097;DHT22;18610;49.916;8.284;2023-12-29T11:51:47;11.10;99.90
32097;DHT22;18610;49.916;8.284;2023-12-29T11:54:21;11.20;99.90
32097;DHT22;18610;49.916;8.284;2023-12-29T11:56:48;11.20;99.90
32097;DHT22;18610;49.916;8.284;2023-12-29T11:59:16;11.20;99.90
32097;DHT22;18610;49.916;8.284;2023-12-29T12:01:46;11.10;99.90
32097;DHT22;18610;49.916;8.284;2023-12-29T12:04:35;11.10;99.90
32097;DHT22;18610;49.916;8.284;2023-12-29T12:07:04;11.10;99.90
32097;DHT22;18610;49.916;8.284;2023-12-29T12:09:32;11.10;99.90
32097;DHT22;18610;49.916;8.284;2023-12-29T12:12:00;11.20;99.90
32097;DHT22;18610;49.916;8.284;2023-12-29T12:14:47;11.10;99.90
32097;DHT22;18610;49.916;8.284;2023-12-29T12:17:28;11.10;99.90
32097;DHT22;18610;49.916;8.284;2023-12-29T12:19:57;11.10;99.90
32097;DHT22;18610;49.916;8.284;2023-12-29T12:22:24;11.10;99.90
32097;DHT22;18610;49.916;8.284;2023-12-29T12:24:55;11.20;99.90
32097;DHT22;18610;49.916;8.284;2023-12-29T12:27:22;11.20;99.90
32097;DHT22;18610;49.916;8.284;2023-12-29T12:29:53;11.20;99.90
32097;DHT22;18610;49.916;8.284;2023-12-29T12:32:20;11.20;99.90
32097;DHT22;18610;49.916;8.284;2023-12-29T12:34:48;11.20;99.90
32097;DHT22;18610;49.916;8.284;2023-12-29T12:37:19;11.30;99.90
32097;DHT22;18610;49.916;8.284;2023-12-29T12:39:46;11.30;99.90
32097;DHT22;18610;49.916;8.284;2023-12-29T12:42:13;11.30;99.90
32097;DHT22;18610;49.916;8.284;2023-12-29T12:44:42;11.30;99.90
32097;DHT22;18610;49.916;8.284;2023-12-29T12:47:16;11.40;99.90
32097;DHT22;18610;49.916;8.284;2023-12-29T12:49:44;11.50;99.90
32097;DHT22;18610;49.916;8.284;2023-12-29T12:52:12;11.50;99.90
32097;DHT22;18610;49.916;8.284;2023-12-29T12:54:39;11.50;99.90
32097;DHT22;18610;49.916;8.284;2023-12-29T12:57:05;11.50;99.90
32097;DHT22;18610;49.916;8.284;2023-12-29T12:59:32;11.50;99.90
32097;DHT22;18610;49.916;8.284;2023-12-29T13:01:59;11.50;99.90
32097;DHT22;18610;49.916;8.284;2023-12-29T13:04:26;11.60;99.90
32097;DHT22;18610;49.916;8.284;2023-12-29T13:06:53;11.50;99.90
32097;DHT22;18610;49.916;8.284;2023-12-29T13:09:21;11.50;99.90
32097;DHT22;18610;49.916;8.284;2023-12-29T13:11:47;11.50;99.90
32097;DHT22;18610;49.916;8.284;2023-12-29T13:14:20;11.40;99.90
32097;DHT22;18610;49.916;8.284;2023-12-29T13:16:47;11.40;99.90
32097;DHT22;18610;49.916;8.284;2023-12-29T13:19:16;11.40;99.90
32097;DHT22;18610;49.916;8.284;2023-12-29T13:21:46;11.30;99.90
32097;DHT22;18610;49.916;8.284;2023-12-29T13:24:13;11.30;99.90
32097;DHT22;18610;49.916;8.284;2023-12-29T13:26:44;11.40;99.90
32097;DHT22;18610;49.916;8.284;2023-12-29T13:29:12;11.40;99.90
32097;DHT22;18610;49.916;8.284;2023-12-29T13:31:40;11.40;99.90
32097;DHT22;18610;49.916;8.284;2023-12-29T13:34:12;11.50;99.90
32097;DHT22;18610;49.916;8.284;2023-12-29T13:36:42;11.60;99.90
32097;DHT22;18610;49.916;8.284;2023-12-29T13:39:11;11.70;99.90
32097;DHT22;18610;49.916;8.284;2023-12-29T13:41:42;11.70;99.90
32097;DHT22;18610;49.916;8.284;2023-12-29T13:44:10;11.80;99.90
32097;DHT22;18610;49.916;8.284;2023-12-29T13:46:37;11.70;99.90
32097;DHT22;18610;49.916;8.284;2023-12-29T13:49:05;11.70;99.90
32097;DHT22;18610;49.916;8.284;2023-12-29T13:51:32;11.60;99.90
32097;DHT22;18610;49.916;8.284;2023-12-29T13:53:59;11.60;99.90
32097;DHT22;18610;49.916;8.284;2023-12-29T13:56:26;11.60;99.90
32097;DHT22;18610;49.916;8.284;2023-12-29T13:58:56;11.60;99.90
32097;DHT22;18610;49.916;8.284;2023-12-29T14:01:35;11.60;99.90
32097;DHT22;18610;49.916;8.284;2023-12-29T14:04:07;11.40;99.90
32097;DHT22;18610;49.916;8.284;2023-12-29T14:06:38;11.40;99.90
32097;DHT22;18610;49.916;8.284;2023-12-29T14:09:14;11.20;99.90
32097;DHT22;18610;49.916;8.284;2023-12-29T14:11:44;11.10;99.90
32097;DHT22;18610;49.916;8.284;2023-12-29T14:14:12;11.10;99.90
32097;DHT22;18610;49.916;8.284;2023-12-29T14:16:39;11.10;99.90
32097;DHT22;18610;49.916;8.284;2023-12-29T14:19:06;11.10;99.90
32097;DHT22;18610;49.916;8.284;2023-12-29T14:21:33;11.00;99.90
32097;DHT22;18610;49.916;8.284;2023-12-29T14:24:09;11.00;99.90
32097;DHT22;18610;49.916;8.284;2023-12-29T14:26:36;11.00;99.90
32097;DHT22;18610;49.916;8.284;2023-12-29T14:29:04;10.90;99.90
32097;DHT22;18610;49.916;8.284;2023-12-29T14:31:39;10.90;99.90
32097;DHT22;18610;49.916;8.284;2023-12-29T14:34:06;10.90;99.90
32097;DHT22;18610;49.916;8.284;2023-12-29T14:36:34;10.90;99.90
32097;DHT22;18610;49.916;8.284;2023-12-29T14:39:02;10.90;99.90
32097;DHT22;18610;49.916;8.284;2023-12-29T14:41:29;10.90;99.90
32097;DHT22;18610;49.916;8.284;2023-12-29T14:43:56;10.80;99.90
32097;DHT22;18610;49.916;8.284;2023-12-29T14:46:23;10.90;99.90
32097;DHT22;18610;49.916;8.284;2023-12-29T14:48:51;10.90;99.90
32097;DHT22;18610;49.916;8.284;2023-12-29T14:51:19;10.90;99.90
32097;DHT22;18610;49.916;8.284;2023-12-29T14:53:48;10.90;99.90
32097;DHT22;18610;49.916;8.284;2023-12-29T14:56:15;10.80;99.90
32097;DHT22;18610;49.916;8.284;2023-12-29T14:58:41;10.90;99.90
32097;DHT22;18610;49.916;8.284;2023-12-29T15:01:09;10.90;99.90
32097;DHT22;18610;49.916;8.284;2023-12-29T15:03:36;10.90;99.90
32097;DHT22;18610;49.916;8.284;2023-12-29T15:06:04;10.90;99.90
32097;DHT22;18610;49.916;8.284;2023-12-29T15:08:31;10.90;99.90
32097;DHT22;18610;49.916;8.284;2023-12-29T15:11:00;10.90;99.90
32097;DHT22;18610;49.916;8.284;2023-12-29T15:13:27;10.90;99.90
32097;DHT22;18610;49.916;8.284;2023-12-29T15:15:55;10.90;99.90
32097;DHT22;18610;49.916;8.284;2023-12-29T15:18:22;10.90;99.90
32097;DHT22;18610;49.916;8.284;2023-12-29T15:20:49;10.90;99.90
32097;DHT22;18610;49.916;8.284;2023-12-29T15:23:17;10.90;99.90
32097;DHT22;18610;49.916;8.284;2023-12-29T15:25:44;10.90;99.90
32097;DHT22;18610;49.916;8.284;2023-12-29T15:28:11;10.90;99.90
32097;DHT22;18610;49.916;8.284;2023-12-29T15:30:38;10.90;99.90
32097;DHT22;18610;49.916;8.284;2023-12-29T15:33:05;10.90;99.90
32097;DHT22;18610;49.916;8.284;2023-12-29T15:35:31;10.90;99.90
32097;DHT22;18610;49.916;8.284;2023-12-29T15:37:58;10.90;99.90
32097;DHT22;18610;49.916;8.284;2023-12-29T15:40:26;10.90;99.90
32097;DHT22;18610;49.916;8.284;2023-12-29T15:42:53;10.80;99.90